createdAt,value
2022-12-03T00:00:18.274Z,2.00
2022-12-03T00:02:45.104Z,1.80
2022-12-03T00:05:11.936Z,1.70
2022-12-03T00:07:38.597Z,1.50
2022-12-03T00:10:05.672Z,1.80
2022-12-03T00:12:32.284Z,1.50
2022-12-03T00:14:58.959Z,1.40
2022-12-03T00:17:25.682Z,1.60
2022-12-03T00:19:52.363Z,1.40
2022-12-03T00:22:18.985Z,1.30
2022-12-03T00:24:45.614Z,1.30
2022-12-03T00:27:12.206Z,1.30
2022-12-03T00:29:38.864Z,1.40
2022-12-03T00:32:05.678Z,1.60
2022-12-03T00:34:32.332Z,1.40
2022-12-03T00:36:58.938Z,1.20
2022-12-03T00:39:25.567Z,1.10
2022-12-03T00:41:52.178Z,1.10
2022-12-03T00:44:18.808Z,1.40
2022-12-03T00:46:45.515Z,1.20
2022-12-03T00:49:12.220Z,1.10
2022-12-03T00:51:38.811Z,0.90
2022-12-03T00:54:05.436Z,0.90
2022-12-03T00:56:32.051Z,0.90
2022-12-03T00:58:58.675Z,0.90
2022-12-03T01:01:25.433Z,0.80
2022-12-03T01:03:52.080Z,0.80
2022-12-03T01:06:18.686Z,0.90
2022-12-03T01:08:45.419Z,1.10
2022-12-03T01:11:30.812Z,0.80
2022-12-03T01:13:57.461Z,0.90
2022-12-03T01:16:24.220Z,0.80
2022-12-03T01:18:52.743Z,0.70
2022-12-03T01:21:19.553Z,0.90
2022-12-03T01:23:46.183Z,0.80
2022-12-03T01:26:12.796Z,0.60
2022-12-03T01:28:41.714Z,0.70
2022-12-03T01:31:27.034Z,0.70
2022-12-03T01:33:53.728Z,0.70
2022-12-03T01:36:20.350Z,0.70
2022-12-03T01:38:48.627Z,0.60
2022-12-03T01:41:17.007Z,0.60
2022-12-03T01:43:43.870Z,0.80
2022-12-03T01:46:12.623Z,0.90
2022-12-03T01:48:39.419Z,0.50
2022-12-03T01:51:06.680Z,0.60
2022-12-03T01:53:33.291Z,0.70
2022-12-03T01:55:59.952Z,0.60
2022-12-03T01:58:28.352Z,0.60
2022-12-03T02:00:56.155Z,0.40
2022-12-03T02:03:23.911Z,0.40
2022-12-03T02:05:50.846Z,0.60
2022-12-03T02:08:27.702Z,0.80
2022-12-03T02:10:54.432Z,0.60
2022-12-03T02:13:21.359Z,0.40
2022-12-03T02:15:48.041Z,0.30
2022-12-03T02:18:14.728Z,0.50
2022-12-03T02:20:46.591Z,0.50
2022-12-03T02:23:35.928Z,0.40
2022-12-03T02:26:02.699Z,0.40
2022-12-03T02:28:29.331Z,0.60
2022-12-03T02:30:56.024Z,0.70
2022-12-03T02:33:22.622Z,0.70
2022-12-03T02:35:49.373Z,1.10
2022-12-03T02:38:21.009Z,0.70
2022-12-03T02:40:49.097Z,0.60
2022-12-03T02:43:17.094Z,0.80
2022-12-03T02:45:45.911Z,0.90
2022-12-03T02:48:15.506Z,0.60
2022-12-03T02:50:46.119Z,0.50
2022-12-03T02:53:14.351Z,0.40
2022-12-03T02:55:41.479Z,0.40
2022-12-03T02:58:08.326Z,0.80
2022-12-03T03:00:35.849Z,0.30
2022-12-03T03:03:03.664Z,0.30
2022-12-03T03:05:30.903Z,0.30
2022-12-03T03:07:58.408Z,0.50
2022-12-03T03:10:25.245Z,0.80
2022-12-03T03:12:53.812Z,0.50
2022-12-03T03:15:20.966Z,0.40
2022-12-03T03:17:49.627Z,0.60
2022-12-03T03:20:16.378Z,0.70
2022-12-03T03:22:43.270Z,0.60
2022-12-03T03:25:12.240Z,0.50
2022-12-03T03:27:40.149Z,0.60
2022-12-03T03:30:07.277Z,0.20
2022-12-03T03:32:34.279Z,0.30
2022-12-03T03:35:01.018Z,0.30
2022-12-03T03:37:28.303Z,0.30
2022-12-03T03:39:55.216Z,0.40
2022-12-03T03:42:22.229Z,0.50
2022-12-03T03:44:49.606Z,0.30
2022-12-03T03:47:17.193Z,0.40
2022-12-03T03:49:44.174Z,0.50
2022-12-03T03:52:11.797Z,0.40
2022-12-03T03:54:38.973Z,0.50
2022-12-03T03:57:05.895Z,0.60
2022-12-03T03:59:32.547Z,0.30
2022-12-03T04:01:59.173Z,0.20
2022-12-03T04:04:28.880Z,0.40
2022-12-03T04:06:55.563Z,0.50
2022-12-03T04:09:22.182Z,0.10
2022-12-03T04:12:07.425Z,0.40
2022-12-03T04:14:34.047Z,0.20
2022-12-03T04:17:00.734Z,0.30
2022-12-03T04:19:27.407Z,0.10
2022-12-03T04:22:12.913Z,0.20
2022-12-03T04:24:39.603Z,0.00
2022-12-03T04:27:25.040Z,0.10
2022-12-03T04:29:51.655Z,0.10
2022-12-03T04:32:36.951Z,0.30
2022-12-03T04:35:22.200Z,0.00
2022-12-03T04:37:48.870Z,0.00
2022-12-03T04:40:34.274Z,0.10
2022-12-03T04:43:00.887Z,0.20
2022-12-03T04:45:27.515Z,0.50
2022-12-03T04:47:54.138Z,0.80
2022-12-03T04:50:20.812Z,0.60
2022-12-03T04:52:47.436Z,0.40
2022-12-03T04:55:14.189Z,0.30
2022-12-03T04:57:40.815Z,0.20
2022-12-03T05:00:08.330Z,0.10
2022-12-03T05:02:35.042Z,0.00
2022-12-03T05:05:01.744Z,0.20
2022-12-03T05:07:28.423Z,0.20
2022-12-03T05:09:55.111Z,0.30
2022-12-03T05:12:21.716Z,0.30
2022-12-03T05:14:48.351Z,0.30
2022-12-03T05:17:14.961Z,0.40
2022-12-03T05:20:00.338Z,0.10
2022-12-03T05:22:26.992Z,0.50
2022-12-03T05:24:53.780Z,0.40
2022-12-03T05:27:23.983Z,0.40
2022-12-03T05:29:51.185Z,0.20
2022-12-03T05:32:17.836Z,0.20
2022-12-03T05:34:44.477Z,0.00
2022-12-03T05:37:11.123Z,0.20
2022-12-03T05:39:37.784Z,0.10
2022-12-03T05:42:23.159Z,0.20
2022-12-03T05:44:49.795Z,0.20
2022-12-03T05:47:16.407Z,0.30
2022-12-03T05:49:43.028Z,0.20
2022-12-03T05:52:09.673Z,0.30
2022-12-03T05:54:36.434Z,0.40
2022-12-03T05:57:03.203Z,0.40
2022-12-03T05:59:29.878Z,0.30
2022-12-03T06:01:56.453Z,0.50
2022-12-03T06:04:23.054Z,0.50
2022-12-03T06:06:49.712Z,0.50
2022-12-03T06:09:16.321Z,0.40
2022-12-03T06:11:42.911Z,0.40
2022-12-03T06:14:09.544Z,0.50
2022-12-03T06:16:36.213Z,0.40
2022-12-03T06:19:02.887Z,0.40
2022-12-03T06:21:29.480Z,0.50
2022-12-03T06:23:56.091Z,0.40
2022-12-03T06:26:22.705Z,0.50
2022-12-03T06:28:49.402Z,0.70
2022-12-03T06:31:16.040Z,0.70
2022-12-03T06:33:42.720Z,0.60
2022-12-03T06:36:09.348Z,0.40
2022-12-03T06:38:35.939Z,0.70
2022-12-03T06:41:02.554Z,0.80
2022-12-03T06:43:30.852Z,0.80
2022-12-03T06:45:57.449Z,0.80
2022-12-03T06:48:24.067Z,0.50
2022-12-03T06:50:50.687Z,0.30
2022-12-03T06:53:17.280Z,0.30
2022-12-03T06:55:43.913Z,0.40
2022-12-03T06:58:10.491Z,0.60
2022-12-03T07:00:37.112Z,0.60
2022-12-03T07:03:03.854Z,0.70
2022-12-03T07:05:30.522Z,0.30
2022-12-03T07:07:57.227Z,0.50
2022-12-03T07:10:23.863Z,0.50
2022-12-03T07:12:50.449Z,0.40
2022-12-03T07:15:17.226Z,0.70
2022-12-03T07:17:43.857Z,0.50
2022-12-03T07:20:10.694Z,0.30
2022-12-03T07:22:37.276Z,0.20
2022-12-03T07:25:04.938Z,0.00
2022-12-03T07:27:31.517Z,0.20
2022-12-03T07:29:58.132Z,0.40
2022-12-03T07:32:24.899Z,0.30
2022-12-03T07:34:51.713Z,0.50
2022-12-03T07:37:22.928Z,0.50
2022-12-03T07:39:50.159Z,0.40
2022-12-03T07:42:16.736Z,0.60
2022-12-03T07:44:43.367Z,0.50
2022-12-03T07:47:10.068Z,0.30
2022-12-03T07:49:36.725Z,1.00
2022-12-03T07:52:03.380Z,0.60
2022-12-03T07:54:29.979Z,0.60
2022-12-03T07:57:01.171Z,0.40
2022-12-03T07:59:28.759Z,0.50
2022-12-03T08:01:55.501Z,0.50
2022-12-03T08:04:22.219Z,0.60
2022-12-03T08:06:49.048Z,0.50
2022-12-03T08:09:16.421Z,0.40
2022-12-03T08:11:45.100Z,0.50
2022-12-03T08:14:15.868Z,0.60
2022-12-03T08:16:43.358Z,0.60
2022-12-03T08:19:11.326Z,0.40
2022-12-03T08:21:38.085Z,0.60
2022-12-03T08:24:10.815Z,0.50
2022-12-03T08:26:37.442Z,0.40
2022-12-03T08:29:08.535Z,0.70
2022-12-03T08:31:35.214Z,0.80
2022-12-03T08:34:16.600Z,0.90
2022-12-03T08:36:43.234Z,0.70
2022-12-03T08:39:22.042Z,0.70
2022-12-03T08:42:13.852Z,0.50
2022-12-03T08:44:43.753Z,0.50
2022-12-03T08:47:10.358Z,0.40
2022-12-03T08:49:37.121Z,0.30
2022-12-03T08:52:10.984Z,0.50
2022-12-03T08:54:37.611Z,0.60
2022-12-03T08:57:39.811Z,0.60
2022-12-03T09:00:20.294Z,0.60
2022-12-03T09:02:51.443Z,0.60
2022-12-03T09:05:23.343Z,0.50
2022-12-03T09:07:50.144Z,0.70
2022-12-03T09:10:16.833Z,0.60
2022-12-03T09:12:43.468Z,0.70
2022-12-03T09:15:10.340Z,0.80
2022-12-03T09:17:37.222Z,0.90
2022-12-03T09:20:04.499Z,0.90
2022-12-03T09:22:31.388Z,0.70
2022-12-03T09:24:58.005Z,0.80
2022-12-03T09:27:24.619Z,0.60
2022-12-03T09:29:51.298Z,0.60
2022-12-03T09:32:18.751Z,0.60
2022-12-03T09:34:45.831Z,0.70
2022-12-03T09:37:12.439Z,0.70
2022-12-03T09:39:39.072Z,0.70
2022-12-03T09:42:05.777Z,0.70
2022-12-03T09:44:33.479Z,0.70
2022-12-03T09:47:00.626Z,0.80
2022-12-03T09:49:28.080Z,0.70
2022-12-03T09:51:58.299Z,0.70
2022-12-03T09:54:26.315Z,0.60
2022-12-03T09:56:53.710Z,0.80
2022-12-03T09:59:20.864Z,0.90
2022-12-03T10:01:47.742Z,0.70
2022-12-03T10:04:14.625Z,0.50
2022-12-03T10:06:45.766Z,0.60
2022-12-03T10:09:14.447Z,0.70
2022-12-03T10:11:41.163Z,0.70
2022-12-03T10:14:11.341Z,1.10
2022-12-03T10:16:40.170Z,0.80
2022-12-03T10:19:09.464Z,0.70
2022-12-03T10:21:36.736Z,0.90
2022-12-03T10:24:22.294Z,0.70
2022-12-03T10:26:50.038Z,0.90
2022-12-03T10:29:16.615Z,0.90
2022-12-03T10:31:43.210Z,0.90
2022-12-03T10:34:09.888Z,0.80
2022-12-03T10:36:36.750Z,0.80
2022-12-03T10:39:09.439Z,0.90
2022-12-03T10:41:36.359Z,0.90
2022-12-03T10:44:12.380Z,0.90
2022-12-03T10:46:39.110Z,1.00
2022-12-03T10:49:10.051Z,0.70
2022-12-03T10:51:38.043Z,0.70
2022-12-03T10:54:11.564Z,0.90
2022-12-03T10:56:38.211Z,0.80
2022-12-03T10:59:04.853Z,0.70
2022-12-03T11:01:31.748Z,0.70
2022-12-03T11:04:02.652Z,0.90
2022-12-03T11:06:30.311Z,1.00
2022-12-03T11:09:00.434Z,1.10
2022-12-03T11:11:30.966Z,1.00
2022-12-03T11:13:59.078Z,1.20
2022-12-03T11:16:46.024Z,0.70
2022-12-03T11:19:12.666Z,0.60
2022-12-03T11:21:57.958Z,0.80
2022-12-03T11:24:24.604Z,0.90
2022-12-03T11:26:51.167Z,1.00
2022-12-03T11:29:37.726Z,0.90
2022-12-03T11:32:04.331Z,0.70
2022-12-03T11:34:33.726Z,0.60
2022-12-03T11:37:09.464Z,0.90
2022-12-03T11:39:48.284Z,0.80
2022-12-03T11:42:25.199Z,0.90
2022-12-03T11:45:18.174Z,1.00
2022-12-03T11:47:44.759Z,0.60
2022-12-03T11:50:37.667Z,0.70
2022-12-03T11:53:13.359Z,0.90
2022-12-03T11:55:48.613Z,1.10
2022-12-03T11:58:22.470Z,1.00
2022-12-03T12:00:53.392Z,1.10
2022-12-03T12:03:23.166Z,0.90
2022-12-03T12:06:08.742Z,0.90
2022-12-03T12:08:36.120Z,1.10
2022-12-03T12:11:03.116Z,1.20
2022-12-03T12:13:33.887Z,1.30
2022-12-03T12:16:05.216Z,1.20
2022-12-03T12:18:34.890Z,1.10
2022-12-03T12:21:24.845Z,0.90
2022-12-03T12:23:51.509Z,1.20
2022-12-03T12:26:18.125Z,1.20
2022-12-03T12:28:44.788Z,1.10
2022-12-03T12:31:11.744Z,0.80
2022-12-03T12:33:38.512Z,0.90
2022-12-03T12:36:07.960Z,1.10
2022-12-03T12:38:34.586Z,0.90
2022-12-03T12:41:04.996Z,0.80
2022-12-03T12:43:33.752Z,0.70
2022-12-03T12:46:18.529Z,0.80
2022-12-03T12:48:48.201Z,1.10
2022-12-03T12:51:18.666Z,1.10
2022-12-03T12:53:45.520Z,1.00
2022-12-03T12:56:21.628Z,1.10
2022-12-03T12:58:48.266Z,0.90
2022-12-03T13:01:25.603Z,0.90
2022-12-03T13:03:52.684Z,0.80
2022-12-03T13:06:23.616Z,0.90
2022-12-03T13:08:50.330Z,1.00
2022-12-03T13:11:34.474Z,1.00
2022-12-03T13:14:10.378Z,1.10
2022-12-03T13:16:37.170Z,0.80
2022-12-03T13:19:13.226Z,0.90
2022-12-03T13:21:40.832Z,0.80
2022-12-03T13:24:26.335Z,1.20
2022-12-03T13:26:53.110Z,0.80
2022-12-03T13:29:20.421Z,0.70
2022-12-03T13:31:57.849Z,0.70
2022-12-03T13:34:27.848Z,0.70
2022-12-03T13:36:58.138Z,0.70
2022-12-03T13:39:39.102Z,0.80
2022-12-03T13:42:33.696Z,0.70
2022-12-03T13:45:02.804Z,0.70
2022-12-03T13:47:29.408Z,1.10
2022-12-03T13:49:57.829Z,1.00
2022-12-03T13:52:25.033Z,0.90
2022-12-03T13:54:53.737Z,0.90
2022-12-03T13:57:22.064Z,0.70
2022-12-03T13:59:48.788Z,0.80
2022-12-03T14:02:15.733Z,0.90
2022-12-03T14:04:42.565Z,1.00
2022-12-03T14:07:09.193Z,1.10
2022-12-03T14:09:35.826Z,1.00
2022-12-03T14:12:22.259Z,0.90
2022-12-03T14:14:49.438Z,0.80
2022-12-03T14:17:16.424Z,1.10
2022-12-03T14:19:43.219Z,0.80
2022-12-03T14:22:10.094Z,0.80
2022-12-03T14:24:37.131Z,0.80
2022-12-03T14:27:03.840Z,0.80
2022-12-03T14:29:30.493Z,0.80
2022-12-03T14:31:57.221Z,0.70
2022-12-03T14:34:23.899Z,0.80
2022-12-03T14:36:50.585Z,0.50
2022-12-03T14:39:17.207Z,0.40
2022-12-03T14:42:02.491Z,0.70
2022-12-03T14:44:29.151Z,0.50
2022-12-03T14:46:57.553Z,0.40
2022-12-03T14:49:24.448Z,0.60
2022-12-03T14:51:51.157Z,0.90
2022-12-03T14:54:17.791Z,0.70
2022-12-03T14:56:44.426Z,0.70
2022-12-03T14:59:11.034Z,0.60
2022-12-03T15:01:37.743Z,0.60
2022-12-03T15:04:04.534Z,0.90
2022-12-03T15:06:31.211Z,0.60
2022-12-03T15:08:57.879Z,0.70
2022-12-03T15:11:24.569Z,0.70
2022-12-03T15:13:51.176Z,0.60
2022-12-03T15:16:17.859Z,0.40
2022-12-03T15:18:45.499Z,0.90
2022-12-03T15:21:12.181Z,0.60
2022-12-03T15:23:38.822Z,0.30
2022-12-03T15:26:05.607Z,0.30
2022-12-03T15:28:32.219Z,0.20
2022-12-03T15:30:58.962Z,0.20
2022-12-03T15:33:25.734Z,0.40
2022-12-03T15:35:52.355Z,0.10
2022-12-03T15:38:19.289Z,0.30
2022-12-03T15:40:45.987Z,0.30
2022-12-03T15:43:12.739Z,0.50
2022-12-03T15:45:39.373Z,0.70
2022-12-03T15:48:06.030Z,0.60
2022-12-03T15:50:38.451Z,0.40
2022-12-03T15:53:06.626Z,0.60
2022-12-03T15:55:33.271Z,0.50
2022-12-03T15:57:59.881Z,0.50
2022-12-03T16:00:26.534Z,0.40
2022-12-03T16:02:53.390Z,0.10
2022-12-03T16:05:20.038Z,0.20
2022-12-03T16:07:46.789Z,0.10
2022-12-03T16:10:13.576Z,0.20
2022-12-03T16:12:40.302Z,0.10
2022-12-03T16:15:07.022Z,0.30
2022-12-03T16:17:33.780Z,0.20
2022-12-03T16:20:00.451Z,0.10
2022-12-03T16:22:27.125Z,0.00
2022-12-03T16:24:53.721Z,0.10
2022-12-03T16:27:24.149Z,0.60
2022-12-03T16:29:52.956Z,0.20
2022-12-03T16:32:19.914Z,0.30
2022-12-03T16:34:46.556Z,0.40
2022-12-03T16:37:13.363Z,0.60
2022-12-03T16:39:47.248Z,0.20
2022-12-03T16:42:17.175Z,0.10
2022-12-03T16:45:04.645Z,0.00
2022-12-03T16:47:34.122Z,0.00
2022-12-03T16:50:05.096Z,0.10
2022-12-03T16:52:31.722Z,0.10
2022-12-03T16:54:58.347Z,0.10
2022-12-03T16:57:28.885Z,0.30
2022-12-03T16:59:58.587Z,0.30
2022-12-03T17:02:25.278Z,0.30
2022-12-03T17:04:52.054Z,0.10
2022-12-03T17:07:18.651Z,0.40
2022-12-03T17:09:45.269Z,0.50
2022-12-03T17:12:11.875Z,0.30
2022-12-03T17:14:38.493Z,0.30
2022-12-03T17:17:05.110Z,0.30
2022-12-03T17:19:31.723Z,0.20
2022-12-03T17:21:59.751Z,0.00
2022-12-03T17:24:26.543Z,0.20
2022-12-03T17:26:53.304Z,0.20
2022-12-03T17:29:19.947Z,0.00
2022-12-03T17:31:46.611Z,-0.20
2022-12-03T17:34:13.320Z,0.20
2022-12-03T17:36:39.950Z,-0.10
2022-12-03T17:39:06.572Z,-0.10
2022-12-03T17:41:33.208Z,0.00
2022-12-03T17:43:59.877Z,0.10
2022-12-03T17:46:26.542Z,0.10
2022-12-03T17:48:53.212Z,0.00
2022-12-03T17:51:21.069Z,0.10
2022-12-03T17:53:47.710Z,0.30
2022-12-03T17:56:14.446Z,0.10
2022-12-03T17:58:41.064Z,-0.10
2022-12-03T18:01:10.273Z,-0.20
2022-12-03T18:03:37.146Z,0.00
2022-12-03T18:06:04.430Z,-0.20
2022-12-03T18:08:31.053Z,-0.10
2022-12-03T18:10:57.690Z,0.10
2022-12-03T18:13:24.433Z,0.10
2022-12-03T18:15:51.250Z,0.10
2022-12-03T18:18:17.942Z,0.10
2022-12-03T18:20:44.647Z,-0.30
2022-12-03T18:23:11.984Z,-0.20
2022-12-03T18:25:38.669Z,-0.30
2022-12-03T18:28:05.279Z,-0.20
2022-12-03T18:30:31.903Z,0.00
2022-12-03T18:32:58.582Z,-0.20
2022-12-03T18:35:25.234Z,0.00
2022-12-03T18:37:51.887Z,-0.20
2022-12-03T18:40:20.889Z,-0.20
2022-12-03T18:42:47.536Z,-0.30
2022-12-03T18:45:14.955Z,-0.40
2022-12-03T18:47:42.034Z,-0.30
2022-12-03T18:50:09.572Z,-0.20
2022-12-03T18:52:36.339Z,-0.20
2022-12-03T18:55:03.920Z,-0.10
2022-12-03T18:57:30.566Z,0.00
2022-12-03T18:59:57.468Z,-0.20
2022-12-03T19:02:54.215Z,-0.40
2022-12-03T19:05:11.117Z,-0.20
2022-12-03T19:07:38.086Z,-0.40
2022-12-03T19:10:05.278Z,-0.20
2022-12-03T19:12:32.270Z,-0.10
2022-12-03T19:14:58.921Z,-0.30
2022-12-03T19:17:27.111Z,-0.20
2022-12-03T19:19:54.496Z,-0.10
2022-12-03T19:22:21.437Z,0.10
2022-12-03T19:24:51.049Z,-0.10
2022-12-03T19:27:17.981Z,0.00
2022-12-03T19:29:47.532Z,-0.10
2022-12-03T19:32:14.151Z,0.10
2022-12-03T19:34:40.774Z,-0.10
2022-12-03T19:37:07.386Z,-0.10
2022-12-03T19:39:34.008Z,-0.10
2022-12-03T19:42:00.656Z,0.00
2022-12-03T19:44:27.299Z,-0.10
2022-12-03T19:46:54.316Z,0.10
2022-12-03T19:49:21.394Z,0.20
2022-12-03T19:51:48.044Z,0.00
2022-12-03T19:54:14.873Z,0.10
2022-12-03T19:56:41.502Z,-0.10
2022-12-03T19:59:08.532Z,-0.10
2022-12-03T20:01:36.124Z,0.30
2022-12-03T20:04:03.390Z,-0.10
2022-12-03T20:06:31.905Z,0.00
2022-12-03T20:09:04.139Z,0.20
2022-12-03T20:11:31.830Z,-0.10
2022-12-03T20:13:59.706Z,0.00
2022-12-03T20:16:27.478Z,0.20
2022-12-03T20:18:58.060Z,0.20
2022-12-03T20:21:24.711Z,0.20
2022-12-03T20:23:51.309Z,-0.10
2022-12-03T20:26:18.867Z,0.00
2022-12-03T20:28:47.861Z,-0.10
2022-12-03T20:31:15.673Z,-0.20
2022-12-03T20:33:43.652Z,-0.30
2022-12-03T20:36:11.184Z,-0.20
2022-12-03T20:38:37.880Z,-0.10
2022-12-03T20:41:05.931Z,0.20
2022-12-03T20:43:32.799Z,0.30
2022-12-03T20:46:06.224Z,0.00
2022-12-03T20:48:32.889Z,0.00
2022-12-03T20:50:59.672Z,0.20
2022-12-03T20:53:26.468Z,0.00
2022-12-03T20:55:56.566Z,0.00
2022-12-03T20:58:23.466Z,-0.10
2022-12-03T21:00:50.160Z,0.30
2022-12-03T21:03:16.911Z,0.40
2022-12-03T21:05:47.449Z,0.30
2022-12-03T21:08:14.221Z,0.20
2022-12-03T21:10:46.945Z,0.10
2022-12-03T21:13:14.399Z,0.20
2022-12-03T21:15:41.464Z,0.30
2022-12-03T21:18:08.883Z,0.30
2022-12-03T21:20:41.864Z,0.10
2022-12-03T21:23:08.936Z,0.00
2022-12-03T21:25:36.624Z,0.10
2022-12-03T21:28:07.788Z,0.00
2022-12-03T21:30:37.079Z,-0.10
2022-12-03T21:33:04.190Z,-0.10
2022-12-03T21:35:30.826Z,0.00
2022-12-03T21:37:57.580Z,0.00
2022-12-03T21:40:24.212Z,-0.10
2022-12-03T21:42:50.983Z,0.10
2022-12-03T21:45:17.632Z,0.40
2022-12-03T21:47:46.695Z,0.30
2022-12-03T21:50:13.774Z,0.30
2022-12-03T21:52:40.583Z,0.40
2022-12-03T21:55:07.430Z,0.20
2022-12-03T21:57:36.976Z,0.00
2022-12-03T22:00:07.726Z,0.20
2022-12-03T22:02:38.202Z,0.20
2022-12-03T22:05:04.971Z,0.00
2022-12-03T22:07:35.270Z,0.10
2022-12-03T22:10:02.100Z,0.20
2022-12-03T22:12:28.733Z,0.40
2022-12-03T22:14:57.053Z,0.50
2022-12-03T22:17:24.124Z,0.40
2022-12-03T22:19:50.779Z,0.40
2022-12-03T22:22:17.683Z,0.30
2022-12-03T22:24:47.267Z,0.40
2022-12-03T22:27:14.562Z,0.40
2022-12-03T22:29:41.177Z,0.60
2022-12-03T22:32:07.920Z,0.50
2022-12-03T22:34:34.548Z,0.40
2022-12-03T22:37:01.172Z,0.20
2022-12-03T22:39:27.802Z,0.10
2022-12-03T22:41:54.477Z,0.10
2022-12-03T22:44:21.155Z,0.10
2022-12-03T22:46:47.813Z,0.30
2022-12-03T22:49:14.499Z,0.20
2022-12-03T22:51:45.179Z,0.40
2022-12-03T22:54:12.060Z,0.40
2022-12-03T22:56:38.783Z,0.30
2022-12-03T22:59:05.510Z,0.30
2022-12-03T23:01:33.284Z,0.10
2022-12-03T23:04:00.590Z,0.10
2022-12-03T23:06:27.848Z,0.00
2022-12-03T23:08:54.920Z,0.00
2022-12-03T23:11:22.048Z,0.00
2022-12-03T23:13:48.703Z,0.10
2022-12-03T23:16:23.157Z,0.20
2022-12-03T23:18:50.275Z,0.40
2022-12-03T23:21:18.070Z,0.40
2022-12-03T23:23:44.732Z,0.50
2022-12-03T23:26:12.267Z,0.20
2022-12-03T23:28:40.903Z,0.30
2022-12-03T23:31:14.790Z,0.40
2022-12-03T23:33:41.425Z,0.20
2022-12-03T23:36:08.271Z,0.20
2022-12-03T23:38:34.896Z,0.50
2022-12-03T23:41:05.305Z,0.60
2022-12-03T23:43:31.968Z,0.60
2022-12-03T23:46:05.967Z,0.70
2022-12-03T23:48:32.666Z,0.80
2022-12-03T23:50:59.491Z,0.50
2022-12-03T23:53:26.163Z,0.40
2022-12-03T23:55:52.835Z,0.40
2022-12-03T23:58:19.445Z,0.40
